createdAt,value
2023-01-20T00:01:19.793Z,94169.00
2023-01-20T00:03:48.010Z,94168.69
2023-01-20T00:06:16.530Z,94178.69
2023-01-20T00:08:43.346Z,94208.56
2023-01-20T00:11:12.428Z,94200.00
2023-01-20T00:13:39.788Z,94192.31
2023-01-20T00:16:09.633Z,94194.78
2023-01-20T00:18:37.164Z,94217.03
2023-01-20T00:21:21.812Z,94201.59
2023-01-20T00:23:49.183Z,94156.72
2023-01-20T00:26:19.365Z,94049.91
2023-01-20T00:28:47.370Z,94031.84
2023-01-20T00:31:17.162Z,94025.19
2023-01-20T00:33:44.996Z,94043.56
2023-01-20T00:36:13.295Z,94050.25
2023-01-20T00:38:40.329Z,94027.63
2023-01-20T00:41:07.961Z,94017.31
2023-01-20T00:43:35.360Z,94020.72
2023-01-20T00:46:02.959Z,94008.88
2023-01-20T00:48:29.822Z,93999.81
2023-01-20T00:50:56.788Z,94002.81
2023-01-20T00:53:23.575Z,94016.34
2023-01-20T00:55:50.587Z,94007.25
2023-01-20T00:58:17.311Z,94012.22
2023-01-20T01:00:47.499Z,94018.81
2023-01-20T01:03:14.697Z,94021.16
2023-01-20T01:05:41.535Z,94020.09
2023-01-20T01:08:08.651Z,94002.31
2023-01-20T01:10:35.537Z,94001.63
2023-01-20T01:13:04.252Z,93992.31
2023-01-20T01:15:31.209Z,94005.63
2023-01-20T01:17:59.116Z,94001.75
2023-01-20T01:20:27.391Z,93995.28
2023-01-20T01:22:54.514Z,93976.84
2023-01-20T01:25:21.525Z,94004.16
2023-01-20T01:27:48.380Z,94000.97
2023-01-20T01:30:15.095Z,93993.00
2023-01-20T01:32:41.966Z,93981.00
2023-01-20T01:35:08.899Z,93969.34
2023-01-20T01:37:35.714Z,93972.88
2023-01-20T01:40:02.788Z,93971.41
2023-01-20T01:42:29.515Z,93963.91
2023-01-20T01:45:12.123Z,93970.03
2023-01-20T01:47:50.623Z,93966.66
2023-01-20T01:50:22.500Z,93982.31
2023-01-20T01:52:53.121Z,93990.56
2023-01-20T01:55:23.099Z,93989.13
2023-01-20T01:57:51.603Z,93992.53
2023-01-20T02:00:19.205Z,93989.09
2023-01-20T02:02:45.942Z,93981.31
2023-01-20T02:05:15.464Z,93989.97
2023-01-20T02:07:45.734Z,93999.44
2023-01-20T02:10:13.795Z,93993.00
2023-01-20T02:12:42.477Z,93986.44
2023-01-20T02:15:09.733Z,93963.94
2023-01-20T02:18:07.778Z,93961.72
2023-01-20T02:20:58.208Z,93943.13
2023-01-20T02:23:58.988Z,93957.06
2023-01-20T02:26:28.474Z,93958.16
2023-01-20T02:29:10.327Z,93946.16
2023-01-20T02:31:52.212Z,93941.69
2023-01-20T02:34:40.615Z,93939.22
2023-01-20T02:37:13.324Z,93938.13
2023-01-20T02:39:55.150Z,93928.16
2023-01-20T02:42:41.225Z,93923.84
2023-01-20T02:45:25.762Z,93914.66
2023-01-20T02:47:58.654Z,93907.66
2023-01-20T02:50:28.958Z,93910.59
2023-01-20T02:52:59.812Z,93903.63
2023-01-20T02:55:36.054Z,93901.00
2023-01-20T02:58:11.821Z,93910.59
2023-01-20T03:00:44.782Z,93894.78
2023-01-20T03:03:18.420Z,93899.34
2023-01-20T03:05:54.875Z,93897.91
2023-01-20T03:08:26.707Z,93912.59
2023-01-20T03:10:57.653Z,93908.13
2023-01-20T03:13:37.027Z,93904.47
2023-01-20T03:16:10.466Z,93906.44
2023-01-20T03:18:38.964Z,93898.72
2023-01-20T03:21:09.236Z,93902.81
2023-01-20T03:23:40.269Z,93908.09
2023-01-20T03:26:12.634Z,93904.94
2023-01-20T03:28:42.089Z,93906.28
2023-01-20T03:31:52.324Z,93913.88
2023-01-20T03:34:22.564Z,93914.63
2023-01-20T03:36:50.330Z,93908.41
2023-01-20T03:39:18.322Z,93906.97
2023-01-20T03:42:02.968Z,93908.59
2023-01-20T03:44:32.543Z,93909.56
2023-01-20T03:47:21.089Z,93913.88
2023-01-20T03:49:55.707Z,93918.13
2023-01-20T03:52:47.440Z,93906.00
2023-01-20T03:55:18.324Z,93899.47
2023-01-20T03:58:09.070Z,93864.16
2023-01-20T04:00:39.750Z,93881.44
2023-01-20T04:03:11.517Z,93879.44
2023-01-20T04:05:40.172Z,93874.38
2023-01-20T04:08:09.958Z,93864.41
2023-01-20T04:10:40.575Z,93856.16
2023-01-20T04:13:07.372Z,93867.09
2023-01-20T04:15:38.586Z,93861.63
2023-01-20T04:18:20.148Z,93861.75
2023-01-20T04:20:56.586Z,93856.88
2023-01-20T04:23:34.595Z,93845.00
2023-01-20T04:26:01.431Z,93836.25
2023-01-20T04:28:28.463Z,93824.28
2023-01-20T04:30:55.255Z,93822.91
2023-01-20T04:33:22.064Z,93828.59
2023-01-20T04:35:48.756Z,93837.53
2023-01-20T04:38:15.671Z,93833.47
2023-01-20T04:40:42.459Z,93825.47
2023-01-20T04:43:10.262Z,93816.56
2023-01-20T04:45:37.199Z,93831.50
2023-01-20T04:48:08.214Z,93827.97
2023-01-20T04:50:39.557Z,93828.63
2023-01-20T04:53:07.122Z,93833.63
2023-01-20T04:55:33.965Z,93829.88
2023-01-20T04:58:00.663Z,93829.69
2023-01-20T05:00:27.683Z,93836.94
2023-01-20T05:02:57.963Z,93816.22
2023-01-20T05:05:25.376Z,93838.41
2023-01-20T05:07:54.041Z,93850.47
2023-01-20T05:10:21.221Z,93862.06
2023-01-20T05:12:48.044Z,93867.50
2023-01-20T05:15:15.140Z,93858.09
2023-01-20T05:17:42.118Z,93865.53
2023-01-20T05:20:09.749Z,93850.44
2023-01-20T05:22:36.711Z,93846.59
2023-01-20T05:25:03.737Z,93860.38
2023-01-20T05:27:30.860Z,93856.41
2023-01-20T05:29:57.566Z,93853.13
2023-01-20T05:32:24.288Z,93875.28
2023-01-20T05:34:51.123Z,93879.94
2023-01-20T05:37:18.436Z,93889.28
2023-01-20T05:39:45.288Z,93897.06
2023-01-20T05:42:12.177Z,93884.59
2023-01-20T05:44:38.970Z,93890.00
2023-01-20T05:47:06.855Z,93911.72
2023-01-20T05:49:33.854Z,93904.75
2023-01-20T05:52:00.601Z,93892.13
2023-01-20T05:54:27.410Z,93883.53
2023-01-20T05:56:54.176Z,93890.81
2023-01-20T05:59:20.930Z,93869.38
2023-01-20T06:01:47.673Z,93857.69
2023-01-20T06:04:14.586Z,93868.31
2023-01-20T06:06:41.321Z,93864.66
2023-01-20T06:09:09.558Z,93870.66
2023-01-20T06:11:36.602Z,93886.13
2023-01-20T06:14:03.569Z,93896.75
2023-01-20T06:16:30.431Z,93886.13
2023-01-20T06:18:57.698Z,93889.31
2023-01-20T06:21:25.080Z,93894.94
2023-01-20T06:23:53.754Z,93886.88
2023-01-20T06:26:20.614Z,93893.19
2023-01-20T06:28:47.332Z,93904.53
2023-01-20T06:31:16.851Z,93905.91
2023-01-20T06:33:43.796Z,93914.81
2023-01-20T06:36:13.788Z,93893.66
2023-01-20T06:38:40.803Z,93887.25
2023-01-20T06:41:10.933Z,93886.31
2023-01-20T06:43:40.275Z,93873.81
2023-01-20T06:46:10.826Z,93851.41
2023-01-20T06:48:37.955Z,93842.66
2023-01-20T06:51:20.222Z,93855.28
2023-01-20T06:53:48.068Z,93863.31
2023-01-20T06:56:15.732Z,93857.44
2023-01-20T06:58:42.977Z,93842.31
2023-01-20T07:01:21.759Z,93848.81
2023-01-20T07:03:48.855Z,93858.16
2023-01-20T07:06:27.242Z,93856.94
2023-01-20T07:08:54.378Z,93845.13
2023-01-20T07:11:22.375Z,93849.69
2023-01-20T07:13:49.146Z,93868.50
2023-01-20T07:16:16.393Z,93864.09
2023-01-20T07:18:47.103Z,93853.25
2023-01-20T07:21:14.136Z,93844.50
2023-01-20T07:23:40.989Z,93845.06
2023-01-20T07:26:10.531Z,93848.81
2023-01-20T07:28:38.384Z,93853.59
2023-01-20T07:31:06.730Z,93873.81
2023-01-20T07:33:34.059Z,93864.00
2023-01-20T07:36:01.937Z,93847.94
2023-01-20T07:38:29.524Z,93850.38
2023-01-20T07:41:05.097Z,93846.22
2023-01-20T07:43:32.865Z,93859.38
2023-01-20T07:46:01.446Z,93852.97
2023-01-20T07:48:30.417Z,93852.88
2023-01-20T07:51:08.004Z,93848.41
2023-01-20T07:53:37.438Z,93843.91
2023-01-20T07:56:12.347Z,93854.75
2023-01-20T07:58:39.476Z,93854.69
2023-01-20T08:01:13.109Z,93860.63
2023-01-20T08:03:40.518Z,93858.00
2023-01-20T08:06:10.205Z,93852.44
2023-01-20T08:08:37.185Z,93849.56
2023-01-20T08:11:05.977Z,93857.09
2023-01-20T08:13:33.060Z,93837.84
2023-01-20T08:16:01.434Z,93820.47
2023-01-20T08:18:29.079Z,93792.16
2023-01-20T08:20:55.903Z,93787.22
2023-01-20T08:23:22.661Z,93783.78
2023-01-20T08:25:49.739Z,93778.69
2023-01-20T08:28:16.461Z,93805.13
2023-01-20T08:30:43.260Z,93803.69
2023-01-20T08:33:11.034Z,93802.94
2023-01-20T08:35:38.109Z,93801.44
2023-01-20T08:38:05.854Z,93779.28
2023-01-20T08:40:34.121Z,93788.25
2023-01-20T08:43:01.351Z,93773.34
2023-01-20T08:45:28.131Z,93750.75
2023-01-20T08:47:54.962Z,93766.59
2023-01-20T08:50:23.456Z,93762.09
2023-01-20T08:52:50.298Z,93762.88
2023-01-20T08:55:17.431Z,93765.50
2023-01-20T08:57:45.645Z,93754.19
2023-01-20T09:00:14.529Z,93750.00
2023-01-20T09:02:41.495Z,93763.00
2023-01-20T09:05:08.839Z,93761.31
2023-01-20T09:07:36.256Z,93768.16
2023-01-20T09:10:04.607Z,93756.44
2023-01-20T09:12:31.402Z,93757.59
2023-01-20T09:14:58.300Z,93747.53
2023-01-20T09:17:24.996Z,93754.94
2023-01-20T09:19:51.893Z,93764.72
2023-01-20T09:22:19.822Z,93763.50
2023-01-20T09:24:46.619Z,93771.91
2023-01-20T09:27:13.779Z,93759.31
2023-01-20T09:29:40.435Z,93753.84
2023-01-20T09:32:07.260Z,93764.44
2023-01-20T09:34:34.861Z,93754.34
2023-01-20T09:37:21.399Z,93754.50
2023-01-20T09:40:07.235Z,93744.53
2023-01-20T09:43:19.378Z,93736.50
2023-01-20T09:45:52.367Z,93724.69
2023-01-20T09:49:11.532Z,93733.09
2023-01-20T09:52:09.807Z,93736.19
2023-01-20T09:54:44.259Z,93724.69
2023-01-20T09:57:13.959Z,93716.75
2023-01-20T09:59:53.665Z,93702.22
2023-01-20T10:02:30.140Z,93690.22
2023-01-20T10:05:02.096Z,93685.78
2023-01-20T10:07:38.500Z,93688.19
2023-01-20T10:10:18.631Z,93696.31
2023-01-20T10:12:53.878Z,93688.59
2023-01-20T10:15:24.606Z,93679.63
2023-01-20T10:17:54.440Z,93652.56
2023-01-20T10:20:41.305Z,93641.28
2023-01-20T10:23:17.065Z,93638.19
2023-01-20T10:25:58.125Z,93635.66
2023-01-20T10:28:29.761Z,93647.81
2023-01-20T10:31:00.809Z,93650.88
2023-01-20T10:33:37.539Z,93650.31
2023-01-20T10:36:08.903Z,93650.91
2023-01-20T10:38:38.471Z,93670.66
2023-01-20T10:41:18.713Z,93654.50
2023-01-20T10:43:47.980Z,93656.09
2023-01-20T10:46:20.985Z,93657.81
2023-01-20T10:48:53.589Z,93649.66
2023-01-20T10:51:41.696Z,93656.94
2023-01-20T10:54:14.421Z,93667.09
2023-01-20T10:56:53.697Z,93667.31
2023-01-20T10:59:53.605Z,93666.81
2023-01-20T11:02:30.937Z,93651.25
2023-01-20T11:05:03.721Z,93627.31
2023-01-20T11:07:33.336Z,93634.88
2023-01-20T11:10:15.801Z,93641.72
2023-01-20T11:12:45.718Z,93644.44
2023-01-20T11:15:19.121Z,93663.56
2023-01-20T11:17:46.394Z,93661.59
2023-01-20T11:20:23.298Z,93666.22
2023-01-20T11:22:50.587Z,93653.66
2023-01-20T11:25:26.735Z,93639.03
2023-01-20T11:27:54.068Z,93654.03
2023-01-20T11:30:29.327Z,93655.91
2023-01-20T11:33:23.848Z,93658.69
2023-01-20T11:36:01.040Z,93659.41
2023-01-20T11:38:48.251Z,93664.03
2023-01-20T11:41:28.960Z,93654.44
2023-01-20T11:44:00.338Z,93664.47
2023-01-20T11:46:33.400Z,93661.97
2023-01-20T11:49:14.046Z,93672.03
2023-01-20T11:51:54.607Z,93668.81
2023-01-20T11:54:29.316Z,93665.28
2023-01-20T11:57:01.497Z,93673.66
2023-01-20T11:59:31.196Z,93680.63
2023-01-20T12:02:01.602Z,93676.91
2023-01-20T12:04:53.579Z,93682.28
2023-01-20T12:07:37.348Z,93684.94
2023-01-20T12:10:27.907Z,93692.50
2023-01-20T12:13:02.211Z,93693.97
2023-01-20T12:15:35.044Z,93706.66
2023-01-20T12:18:12.950Z,93711.03
2023-01-20T12:21:10.548Z,93714.34
2023-01-20T12:23:49.699Z,93724.78
2023-01-20T12:26:18.997Z,93717.38
2023-01-20T12:29:21.469Z,93726.41
2023-01-20T12:31:49.427Z,93739.41
2023-01-20T12:34:20.620Z,93754.94
2023-01-20T12:37:08.613Z,93748.75
2023-01-20T12:39:47.353Z,93757.94
2023-01-20T12:42:52.308Z,93799.97
2023-01-20T12:45:47.116Z,93816.25
2023-01-20T12:48:37.019Z,93826.63
2023-01-20T12:51:03.799Z,93815.44
2023-01-20T12:53:45.503Z,93810.47
2023-01-20T12:56:50.502Z,93805.94
2023-01-20T13:00:02.480Z,93802.69
2023-01-20T13:02:37.684Z,93812.81
2023-01-20T13:05:33.125Z,93812.53
2023-01-20T13:08:20.536Z,93815.31
2023-01-20T13:10:51.405Z,93822.94
2023-01-20T13:13:23.118Z,93819.78
2023-01-20T13:16:28.391Z,93815.66
2023-01-20T13:19:15.566Z,93816.59
2023-01-20T13:21:42.722Z,93809.38
2023-01-20T13:24:19.123Z,93852.09
2023-01-20T13:26:49.711Z,93830.72
2023-01-20T13:29:34.804Z,93836.59
2023-01-20T13:32:02.012Z,93843.31
2023-01-20T13:34:28.767Z,93843.94
2023-01-20T13:37:07.118Z,93849.69
2023-01-20T13:39:40.567Z,93847.09
2023-01-20T13:42:38.271Z,93854.56
2023-01-20T13:45:24.530Z,93869.63
2023-01-20T13:48:02.152Z,93878.25
2023-01-20T13:50:43.496Z,93869.53
2023-01-20T13:53:10.339Z,93883.94
2023-01-20T13:55:41.788Z,93887.00
2023-01-20T13:58:27.148Z,93900.53
2023-01-20T14:00:56.919Z,93908.47
2023-01-20T14:03:31.643Z,93915.91
2023-01-20T14:06:02.742Z,93904.06
2023-01-20T14:08:32.494Z,93920.97
2023-01-20T14:11:17.558Z,93933.34
2023-01-20T14:14:07.568Z,93930.25
2023-01-20T14:16:34.699Z,93934.47
2023-01-20T14:19:27.148Z,93933.03
2023-01-20T14:21:56.131Z,93938.66
2023-01-20T14:24:44.472Z,93941.84
2023-01-20T14:27:20.675Z,93935.94
2023-01-20T14:29:53.181Z,93925.53
2023-01-20T14:32:25.064Z,93931.47
2023-01-20T14:34:55.743Z,93947.59
2023-01-20T14:37:30.175Z,93951.19
2023-01-20T14:40:00.236Z,93949.53
2023-01-20T14:42:29.022Z,93933.50
2023-01-20T14:44:57.587Z,93942.19
2023-01-20T14:47:26.643Z,93936.78
2023-01-20T14:49:54.628Z,93946.16
2023-01-20T14:52:26.318Z,93932.66
2023-01-20T14:54:56.344Z,93951.66
2023-01-20T14:57:34.579Z,93953.66
2023-01-20T15:00:14.836Z,93967.16
2023-01-20T15:03:15.831Z,93968.44
2023-01-20T15:06:05.431Z,93991.84
2023-01-20T15:08:32.331Z,94001.41
2023-01-20T15:11:14.571Z,94008.28
2023-01-20T15:14:02.815Z,94008.56
2023-01-20T15:16:30.693Z,94010.91
2023-01-20T15:19:20.010Z,94023.50
2023-01-20T15:22:15.647Z,94039.91
2023-01-20T15:24:43.545Z,94029.50
2023-01-20T15:27:39.507Z,94035.66
2023-01-20T15:30:23.642Z,94056.25
2023-01-20T15:32:51.984Z,94064.53
2023-01-20T15:35:23.103Z,94056.31
2023-01-20T15:37:51.108Z,94057.19
2023-01-20T15:40:20.454Z,94078.91
2023-01-20T15:42:48.685Z,94081.31
2023-01-20T15:45:17.097Z,94094.13
2023-01-20T15:47:45.889Z,94095.38
2023-01-20T15:50:15.434Z,94095.19
2023-01-20T15:52:42.801Z,94107.84
2023-01-20T15:55:15.207Z,94106.31
2023-01-20T15:57:42.952Z,94109.50
2023-01-20T16:00:22.796Z,94112.72
2023-01-20T16:02:51.122Z,94127.34
2023-01-20T16:05:18.115Z,94133.69
2023-01-20T16:07:47.559Z,94128.41
2023-01-20T16:10:19.312Z,94136.44
2023-01-20T16:12:47.077Z,94148.72
2023-01-20T16:15:16.311Z,94147.66
2023-01-20T16:17:43.494Z,94157.63
2023-01-20T16:20:19.013Z,94156.16
2023-01-20T16:22:45.849Z,94160.81
2023-01-20T16:25:12.630Z,94155.28
2023-01-20T16:27:39.638Z,94164.50
2023-01-20T16:30:06.951Z,94177.38
2023-01-20T16:32:33.724Z,94177.63
2023-01-20T16:35:01.706Z,94178.63
2023-01-20T16:37:28.499Z,94170.81
2023-01-20T16:39:55.408Z,94188.06
2023-01-20T16:42:22.143Z,94188.81
2023-01-20T16:44:48.932Z,94191.72
2023-01-20T16:47:15.663Z,94182.84
2023-01-20T16:49:42.588Z,94192.78
2023-01-20T16:52:10.868Z,94188.56
2023-01-20T16:54:37.795Z,94199.47
2023-01-20T16:57:04.658Z,94186.50
2023-01-20T16:59:31.520Z,94209.34
2023-01-20T17:01:58.533Z,94211.00
2023-01-20T17:04:26.223Z,94206.31
2023-01-20T17:06:53.386Z,94201.91
2023-01-20T17:09:20.157Z,94206.34
2023-01-20T17:11:46.998Z,94208.69
2023-01-20T17:14:13.924Z,94219.38
2023-01-20T17:16:40.895Z,94218.28
2023-01-20T17:19:07.649Z,94188.34
2023-01-20T17:21:38.619Z,94211.56
2023-01-20T17:24:05.908Z,94220.53
2023-01-20T17:26:33.165Z,94224.06
2023-01-20T17:29:05.060Z,94221.50
2023-01-20T17:31:35.562Z,94228.81
2023-01-20T17:34:04.034Z,94238.22
2023-01-20T17:36:34.354Z,94231.44
2023-01-20T17:39:02.846Z,94246.84
2023-01-20T17:41:29.765Z,94239.25
2023-01-20T17:43:56.608Z,94233.00
2023-01-20T17:46:28.591Z,94252.06
2023-01-20T17:48:59.837Z,94260.19
2023-01-20T17:51:28.715Z,94269.88
2023-01-20T17:53:57.322Z,94279.44
2023-01-20T17:56:24.471Z,94279.97
2023-01-20T17:58:51.667Z,94282.53
2023-01-20T18:01:25.834Z,94296.13
2023-01-20T18:03:55.111Z,94304.97
2023-01-20T18:06:24.058Z,94300.81
2023-01-20T18:08:52.067Z,94290.47
2023-01-20T18:11:20.402Z,94296.72
2023-01-20T18:13:48.495Z,94290.00
2023-01-20T18:16:17.693Z,94302.03
2023-01-20T18:18:45.842Z,94308.25
2023-01-20T18:21:15.591Z,94314.28
2023-01-20T18:23:43.376Z,94294.13
2023-01-20T18:26:14.175Z,94302.75
2023-01-20T18:28:42.215Z,94303.00
2023-01-20T18:31:18.156Z,94312.31
2023-01-20T18:33:48.261Z,94297.13
2023-01-20T18:36:27.036Z,94310.31
2023-01-20T18:39:03.850Z,94336.50
2023-01-20T18:41:33.706Z,94340.38
2023-01-20T18:44:02.165Z,94339.31
2023-01-20T18:46:29.218Z,94346.88
2023-01-20T18:48:56.418Z,94335.69
2023-01-20T18:51:25.815Z,94344.13
2023-01-20T18:54:04.665Z,94343.84
2023-01-20T18:56:33.310Z,94353.69
2023-01-20T18:59:02.244Z,94347.47
2023-01-20T19:01:34.276Z,94360.88
2023-01-20T19:04:03.046Z,94374.91
2023-01-20T19:06:37.056Z,94382.06
2023-01-20T19:09:06.948Z,94384.19
2023-01-20T19:11:36.398Z,94392.81
2023-01-20T19:14:03.740Z,94390.72
2023-01-20T19:16:36.901Z,94398.81
2023-01-20T19:19:06.389Z,94411.41
2023-01-20T19:21:36.197Z,94416.38
2023-01-20T19:24:06.195Z,94423.59
2023-01-20T19:26:36.185Z,94420.00
2023-01-20T19:29:08.164Z,94431.47
2023-01-20T19:31:38.016Z,94436.25
2023-01-20T19:34:06.589Z,94425.88
2023-01-20T19:36:33.857Z,94436.94
2023-01-20T19:39:01.224Z,94438.31
2023-01-20T19:41:34.490Z,94435.69
2023-01-20T19:44:03.250Z,94446.78
2023-01-20T19:46:32.376Z,94437.38
2023-01-20T19:49:00.518Z,94453.06
2023-01-20T19:51:27.611Z,94457.94
2023-01-20T19:53:58.080Z,94457.72
2023-01-20T19:56:27.792Z,94464.97
2023-01-20T19:58:55.183Z,94461.19
2023-01-20T20:01:25.947Z,94456.16
2023-01-20T20:03:54.423Z,94457.22
2023-01-20T20:06:31.264Z,94442.59
2023-01-20T20:09:00.446Z,94465.94
2023-01-20T20:11:28.447Z,94465.38
2023-01-20T20:13:57.763Z,94471.84
2023-01-20T20:16:26.978Z,94468.28
2023-01-20T20:18:54.656Z,94466.69
2023-01-20T20:21:21.967Z,94467.13
2023-01-20T20:23:53.850Z,94469.28
2023-01-20T20:26:23.338Z,94476.97
2023-01-20T20:28:53.240Z,94486.13
2023-01-20T20:31:20.677Z,94475.97
2023-01-20T20:33:47.451Z,94472.22
2023-01-20T20:36:15.232Z,94477.06
2023-01-20T20:38:42.009Z,94478.88
2023-01-20T20:41:09.948Z,94463.19
2023-01-20T20:43:38.494Z,94465.09
2023-01-20T20:46:07.359Z,94479.56
2023-01-20T20:48:35.507Z,94486.34
2023-01-20T20:51:06.871Z,94482.59
2023-01-20T20:53:33.904Z,94494.81
2023-01-20T20:56:04.137Z,94490.00
2023-01-20T20:58:31.791Z,94498.09
2023-01-20T21:01:04.228Z,94497.28
2023-01-20T21:03:35.754Z,94481.88
2023-01-20T21:06:02.487Z,94486.03
2023-01-20T21:08:29.635Z,94483.50
2023-01-20T21:11:01.225Z,94493.34
2023-01-20T21:13:28.562Z,94497.34
2023-01-20T21:16:00.815Z,94498.38
2023-01-20T21:18:28.424Z,94509.00
2023-01-20T21:21:00.279Z,94502.41
2023-01-20T21:23:28.366Z,94505.19
2023-01-20T21:26:03.510Z,94505.72
2023-01-20T21:28:36.854Z,94509.88
2023-01-20T21:31:09.198Z,94515.38
2023-01-20T21:33:38.564Z,94531.25
2023-01-20T21:36:07.281Z,94531.53
2023-01-20T21:38:34.079Z,94529.09
2023-01-20T21:41:05.198Z,94531.56
2023-01-20T21:43:51.667Z,94529.50
2023-01-20T21:46:19.325Z,94540.28
2023-01-20T21:49:05.155Z,94538.25
2023-01-20T21:51:50.453Z,94528.59
2023-01-20T21:54:18.196Z,94534.78
2023-01-20T21:56:45.128Z,94525.94
2023-01-20T21:59:12.027Z,94531.19
2023-01-20T22:01:38.992Z,94536.75
2023-01-20T22:04:06.442Z,94529.59
2023-01-20T22:06:34.237Z,94534.59
2023-01-20T22:09:01.132Z,94526.00
2023-01-20T22:11:27.911Z,94533.59
2023-01-20T22:13:56.071Z,94536.50
2023-01-20T22:16:24.493Z,94530.56
2023-01-20T22:18:52.365Z,94519.16
2023-01-20T22:21:22.284Z,94536.22
2023-01-20T22:23:49.096Z,94519.22
2023-01-20T22:26:15.921Z,94524.44
2023-01-20T22:28:43.133Z,94530.72
2023-01-20T22:31:17.748Z,94538.06
2023-01-20T22:33:44.684Z,94531.00
2023-01-20T22:36:11.592Z,94523.41
2023-01-20T22:38:38.266Z,94516.31
2023-01-20T22:41:07.454Z,94528.13
2023-01-20T22:43:35.210Z,94538.81
2023-01-20T22:46:03.285Z,94536.47
2023-01-20T22:48:35.101Z,94544.84
2023-01-20T22:51:07.136Z,94533.34
2023-01-20T22:53:34.471Z,94542.25
2023-01-20T22:56:06.250Z,94552.75
2023-01-20T22:58:52.222Z,94544.63
2023-01-20T23:01:37.388Z,94544.34
2023-01-20T23:04:05.819Z,94539.13
2023-01-20T23:06:35.428Z,94539.84
2023-01-20T23:09:10.984Z,94541.97
2023-01-20T23:11:39.942Z,94554.28
2023-01-20T23:14:09.466Z,94554.81
2023-01-20T23:16:36.708Z,94545.94
2023-01-20T23:19:03.611Z,94551.59
2023-01-20T23:21:30.605Z,94546.28
2023-01-20T23:23:57.456Z,94558.16
2023-01-20T23:26:27.153Z,94557.13
2023-01-20T23:28:55.194Z,94551.94
2023-01-20T23:31:24.056Z,94526.78
2023-01-20T23:33:51.437Z,94555.47
2023-01-20T23:36:20.932Z,94546.22
2023-01-20T23:38:47.998Z,94542.63
2023-01-20T23:41:15.722Z,94543.47
2023-01-20T23:43:42.573Z,94552.59
2023-01-20T23:46:10.035Z,94540.91
2023-01-20T23:48:37.437Z,94542.97
2023-01-20T23:51:06.392Z,94552.63
2023-01-20T23:53:37.616Z,94539.06
2023-01-20T23:56:11.045Z,94527.53
2023-01-20T23:58:38.061Z,94535.09
